Time;durP1;ratioP1;P1;durP2;ratioP2;P2;SDS_P1;SDS_P2;PMS_P1;PMS_P2;Temp;Humidity;BMP_temperature;BMP_pressure;BME280_temperature;BME280_humidity;BME280_pressure;Samples;Min_cycle;Max_cycle;Signal;HPM_P1;HPM_P2
2021/06/28 00:01:17;;;;;;;10.57;6.38;;;640.80;1587.20;;;;;;5115770;28;20093;-72
2021/06/28 00:03:44;;;;;;;12.45;6.15;;;640.80;1587.20;;;;;;5115975;28;20031;-73
2021/06/28 00:06:12;;;;;;;8.52;5.90;;;640.70;1561.60;;;;;;5116064;28;20042;-73
2021/06/28 00:08:38;;;;;;;11.82;6.45;;;640.60;1561.60;;;;;;5114659;28;20024;-72
2021/06/28 00:11:05;;;;;;;11.15;5.57;;;640.60;1587.20;;;;;;5098264;28;20031;-71
2021/06/28 00:13:31;;;;;;;12.00;6.32;;;640.60;1587.20;;;;;;5115461;28;20015;-71
2021/06/28 00:15:58;;;;;;;10.60;5.65;;;640.60;1587.20;;;;;;5115745;28;20019;-73
2021/06/28 00:18:23;;;;;;;12.18;5.90;;;640.50;1561.60;;;;;;5115325;28;20035;-71
2021/06/28 00:20:50;;;;;;;13.68;6.03;;;640.60;1561.60;;;;;;5115899;28;20030;-71
2021/06/28 00:23:16;;;;;;;11.88;6.57;;;640.50;1561.60;;;;;;5115241;28;20023;-71
2021/06/28 00:25:43;;;;;;;9.60;5.88;;;640.50;1561.60;;;;;;5115380;28;20047;-71
2021/06/28 00:28:09;;;;;;;13.30;6.13;;;640.50;1561.60;;;;;;5096937;28;20460;-73
2021/06/28 00:30:39;;;;;;;7.90;5.57;;;640.60;1561.60;;;;;;5115506;28;20031;-72
2021/06/28 00:33:07;;;;;;;12.07;6.20;;;640.50;1587.20;;;;;;5115270;28;20071;-72
2021/06/28 00:35:34;;;;;;;13.68;5.82;;;640.40;1561.60;;;;;;5114935;28;20434;-72
2021/06/28 00:38:00;;;;;;;11.10;5.38;;;640.50;1561.60;;;;;;5115199;28;20039;-72
2021/06/28 00:40:26;;;;;;;10.18;6.25;;;640.50;1561.60;;;;;;5114701;28;20437;-73
2021/06/28 00:42:52;;;;;;;13.38;9.35;;;640.40;1587.20;;;;;;5115238;28;20059;-73
2021/06/28 00:45:30;;;;;;;13.45;7.28;;;640.40;1561.60;;;;;;5114737;28;20096;-72
2021/06/28 00:48:05;;;;;;;14.82;7.82;;;640.40;1587.20;;;;;;5115066;28;20472;-73
2021/06/28 00:50:33;;;;;;;25.55;13.60;;;640.40;1587.20;;;;;;5114590;28;20356;-73
2021/06/28 00:53:02;;;;;;;19.73;13.73;;;640.30;1587.20;;;;;;5114844;28;20092;-73
2021/06/28 00:55:29;;;;;;;20.52;12.00;;;640.30;1587.20;;;;;;5114975;28;20058;-78
2021/06/28 00:57:55;;;;;;;15.60;10.93;;;640.30;1612.80;;;;;;5096617;28;20036;-72
2021/06/28 01:00:22;;;;;;;18.48;13.73;;;640.20;1587.20;;;;;;5114854;28;20024;-71
2021/06/28 01:02:48;;;;;;;19.63;13.18;;;640.20;1612.80;;;;;;5114565;28;20384;-71
2021/06/28 01:05:20;;;;;;;18.60;12.35;;;640.20;1612.80;;;;;;5114811;28;20472;-71
2021/06/28 01:07:47;;;;;;;17.77;11.13;;;640.20;1612.80;;;;;;5114916;28;20054;-73
2021/06/28 01:10:16;;;;;;;16.55;11.00;;;640.20;1612.80;;;;;;5114735;28;20256;-73
2021/06/28 01:12:48;;;;;;;16.58;12.05;;;640.10;1612.80;;;;;;5096577;28;20027;-70
2021/06/28 01:15:14;;;;;;;19.10;12.82;;;640.10;1612.80;;;;;;5114870;28;20062;-71
2021/06/28 01:17:41;;;;;;;18.95;13.55;;;640.10;1612.80;;;;;;5114738;28;20559;-70
2021/06/28 01:20:22;;;;;;;19.13;12.45;;;640.00;1638.40;;;;;;5114429;28;20103;-70
2021/06/28 01:22:50;;;;;;;17.52;10.32;;;640.00;1612.80;;;;;;5114764;28;20055;-72
2021/06/28 01:25:20;;;;;;;15.20;10.25;;;640.10;1612.80;;;;;;5114685;28;20019;-70
2021/06/28 01:27:47;;;;;;;16.63;8.77;;;640.10;1612.80;;;;;;5114609;28;20027;-70
2021/06/28 01:30:19;;;;;;;13.90;8.15;;;640.10;1612.80;;;;;;5114577;28;20468;-70
2021/06/28 01:32:46;;;;;;;14.52;7.97;;;640.10;1612.80;;;;;;5114403;28;20047;-70
2021/06/28 01:35:14;;;;;;;16.95;9.25;;;640.10;1612.80;;;;;;5114546;28;20062;-70
2021/06/28 01:37:40;;;;;;;12.27;8.18;;;640.10;1612.80;;;;;;5114389;28;20498;-70
2021/06/28 01:40:09;;;;;;;13.70;7.97;;;640.10;1612.80;;;;;;5114278;28;20110;-70
2021/06/28 01:42:36;;;;;;;13.85;8.13;;;640.00;1612.80;;;;;;5096111;28;20024;-70
2021/06/28 01:45:05;;;;;;;15.57;8.95;;;640.00;1612.80;;;;;;5114239;28;20024;-70
2021/06/28 01:47:31;;;;;;;12.60;7.45;;;615.30;1612.80;;;;;;5114546;28;20027;-70
2021/06/28 01:49:57;;;;;;;14.88;8.15;;;615.30;1638.40;;;;;;5114197;28;20031;-70
2021/06/28 01:52:23;;;;;;;18.60;8.82;;;615.30;1638.40;;;;;;5114227;28;20020;-70
2021/06/28 01:54:48;;;;;;;13.45;8.25;;;615.30;1638.40;;;;;;5114172;28;20106;-70
2021/06/28 01:57:14;;;;;;;18.15;8.40;;;615.20;1638.40;;;;;;5114030;28;20084;-70
2021/06/28 01:59:40;;;;;;;12.10;8.23;;;615.20;1638.40;;;;;;5114124;28;20507;-70
2021/06/28 02:02:07;;;;;;;12.00;7.72;;;615.20;1638.40;;;;;;5114071;28;20034;-71
2021/06/28 02:04:33;;;;;;;10.32;7.60;;;615.10;1638.40;;;;;;5114041;28;20020;-70
2021/06/28 02:07:00;;;;;;;17.23;8.27;;;615.10;1638.40;;;;;;5114271;28;20080;-70
2021/06/28 02:09:30;;;;;;;11.55;8.95;;;615.00;1664.00;;;;;;5113966;28;20020;-70
2021/06/28 02:11:56;;;;;;;14.02;8.32;;;615.00;1664.00;;;;;;5113967;28;20062;-70
2021/06/28 02:14:22;;;;;;;12.05;8.35;;;615.00;1664.00;;;;;;5113980;28;20502;-70
2021/06/28 02:16:49;;;;;;;19.73;9.18;;;614.90;1689.60;;;;;;5113942;28;20119;-70
2021/06/28 02:19:16;;;;;;;25.10;8.77;;;614.90;1664.00;;;;;;5114463;28;20048;-70
2021/06/28 02:21:43;;;;;;;15.85;9.23;;;615.00;1664.00;;;;;;5113912;28;20377;-70
2021/06/28 02:24:10;;;;;;;12.68;8.05;;;614.90;1664.00;;;;;;5114138;28;20478;-70
2021/06/28 02:26:37;;;;;;;14.23;8.63;;;614.90;1664.00;;;;;;5113802;28;20094;-70
2021/06/28 02:29:03;;;;;;;17.10;8.98;;;614.90;1664.00;;;;;;5114101;28;20496;-70
2021/06/28 02:31:30;;;;;;;17.92;8.32;;;614.90;1664.00;;;;;;5113794;28;20180;-72
2021/06/28 02:33:56;;;;;;;17.30;8.63;;;614.90;1689.60;;;;;;5099328;28;20051;-70
2021/06/28 02:36:24;;;;;;;19.25;9.00;;;614.90;1664.00;;;;;;5117933;28;20410;-70
2021/06/28 02:38:50;;;;;;;16.55;8.13;;;614.90;1664.00;;;;;;5117998;28;20027;-70
2021/06/28 02:41:19;;;;;;;11.45;7.80;;;614.80;1689.60;;;;;;5117898;28;20016;-70
2021/06/28 02:43:47;;;;;;;14.02;8.32;;;614.90;1664.00;;;;;;5118131;28;20022;-70
2021/06/28 02:46:13;;;;;;;15.10;9.05;;;614.80;1664.00;;;;;;5117768;28;20103;-70
2021/06/28 02:48:40;;;;;;;18.15;8.05;;;614.80;1689.60;;;;;;5118011;28;20393;-70
2021/06/28 02:51:08;;;;;;;16.33;8.98;;;614.70;1689.60;;;;;;5117675;28;20110;-70
2021/06/28 02:53:34;;;;;;;13.02;8.15;;;614.70;1689.60;;;;;;5117633;28;20072;-70
2021/06/28 02:56:21;;;;;;;11.93;7.78;;;614.70;1689.60;;;;;;5117475;28;20015;-70
2021/06/28 02:58:55;;;;;;;15.85;8.00;;;614.70;1689.60;;;;;;5117093;28;20066;-70
2021/06/28 03:01:24;;;;;;;12.82;8.27;;;614.70;1689.60;;;;;;5117463;28;20069;-71
2021/06/28 03:03:50;;;;;;;15.25;8.80;;;614.60;1689.60;;;;;;5117473;28;20027;-70
2021/06/28 03:06:17;;;;;;;20.92;11.77;;;614.70;1689.60;;;;;;5117497;28;20050;-70
2021/06/28 03:08:44;;;;;;;20.65;11.18;;;614.60;1689.60;;;;;;5117343;28;20024;-70
2021/06/28 03:11:12;;;;;;;19.58;8.77;;;614.60;1715.20;;;;;;5117290;28;20368;-70
2021/06/28 03:13:38;;;;;;;14.40;8.65;;;614.60;1715.20;;;;;;5117400;28;20019;-70
2021/06/28 03:16:05;;;;;;;19.55;8.00;;;614.60;1689.60;;;;;;5117139;28;20023;-70
2021/06/28 03:18:32;;;;;;;18.08;8.18;;;614.60;1689.60;;;;;;5117197;28;20031;-70
2021/06/28 03:20:59;;;;;;;10.65;8.50;;;614.60;1689.60;;;;;;5117128;28;20072;-71
2021/06/28 03:23:25;;;;;;;12.50;8.05;;;614.60;1715.20;;;;;;5117066;28;20031;-71
2021/06/28 03:25:51;;;;;;;18.20;8.05;;;614.60;1689.60;;;;;;5117022;28;20019;-70
2021/06/28 03:28:17;;;;;;;12.65;7.85;;;614.60;1689.60;;;;;;5098708;28;20113;-70
2021/06/28 03:30:44;;;;;;;17.67;8.40;;;614.50;1689.60;;;;;;5098565;28;20464;-71
2021/06/28 03:33:10;;;;;;;19.65;8.57;;;614.50;1689.60;;;;;;5116769;28;20047;-70
2021/06/28 03:35:36;;;;;;;14.30;8.25;;;614.50;1689.60;;;;;;5116823;28;20016;-71
2021/06/28 03:38:02;;;;;;;19.40;9.05;;;614.50;1715.20;;;;;;5116709;28;20032;-70
2021/06/28 03:40:32;;;;;;;17.80;8.88;;;614.40;1715.20;;;;;;5116930;28;20022;-71
2021/06/28 03:43:04;;;;;;;22.92;9.35;;;614.50;1715.20;;;;;;5116477;28;20422;-70
2021/06/28 03:45:30;;;;;;;15.83;8.97;;;614.50;1740.80;;;;;;5116694;28;20019;-71
2021/06/28 03:47:57;;;;;;;14.52;8.73;;;614.50;1715.20;;;;;;5116951;28;20102;-71
2021/06/28 03:50:24;;;;;;;15.50;8.57;;;614.60;1715.20;;;;;;5116578;28;20023;-71
2021/06/28 03:52:50;;;;;;;17.60;7.70;;;614.60;1715.20;;;;;;5116537;28;20106;-71
2021/06/28 03:55:16;;;;;;;15.60;8.70;;;614.60;1689.60;;;;;;5113937;28;20027;-71
2021/06/28 03:57:42;;;;;;;17.77;8.27;;;614.70;1689.60;;;;;;5115880;28;20403;-71
2021/06/28 04:00:14;;;;;;;17.67;8.88;;;614.70;1689.60;;;;;;5115290;28;20016;-71
2021/06/28 04:02:42;;;;;;;13.77;8.95;;;614.70;1689.60;;;;;;5116412;28;20023;-71
2021/06/28 04:05:10;;;;;;;10.75;8.55;;;614.80;1689.60;;;;;;5116182;28;20103;-71
2021/06/28 04:07:36;;;;;;;13.30;8.68;;;614.80;1689.60;;;;;;5116409;28;20023;-71
2021/06/28 04:10:04;;;;;;;15.48;8.82;;;614.80;1689.60;;;;;;5116156;28;20129;-71
2021/06/28 04:12:30;;;;;;;16.33;9.27;;;614.90;1689.60;;;;;;5115991;28;20038;-71
2021/06/28 04:14:56;;;;;;;20.30;9.77;;;614.90;1664.00;;;;;;5116086;28;20103;-71
2021/06/28 04:17:22;;;;;;;15.20;10.02;;;614.90;1689.60;;;;;;5115920;28;20032;-71
2021/06/28 04:19:48;;;;;;;18.88;9.63;;;615.00;1664.00;;;;;;5115966;28;20031;-72
2021/06/28 04:22:14;;;;;;;15.35;9.65;;;615.00;1664.00;;;;;;5115962;28;20027;-71
2021/06/28 04:24:39;;;;;;;18.90;10.25;;;615.10;1664.00;;;;;;5116148;28;20058;-71
2021/06/28 04:27:06;;;;;;;17.92;9.65;;;615.20;1664.00;;;;;;5115834;28;20471;-72
2021/06/28 04:29:31;;;;;;;19.95;9.80;;;615.20;1664.00;;;;;;5115778;28;20479;-72
2021/06/28 04:31:57;;;;;;;18.25;9.18;;;615.30;1664.00;;;;;;5115601;28;20020;-71
2021/06/28 04:34:23;;;;;;;18.30;9.48;;;615.30;1638.40;;;;;;5115779;28;20430;-70
2021/06/28 04:36:49;;;;;;;13.98;9.68;;;640.00;1638.40;;;;;;5115556;28;20192;-72
2021/06/28 04:39:15;;;;;;;11.82;8.30;;;640.00;1612.80;;;;;;5115594;28;20053;-71
2021/06/28 04:41:41;;;;;;;10.93;8.30;;;640.10;1612.80;;;;;;5097210;28;20024;-70
2021/06/28 04:44:07;;;;;;;14.77;9.43;;;640.10;1612.80;;;;;;5115504;28;20107;-70
2021/06/28 04:46:33;;;;;;;17.70;10.43;;;640.20;1612.80;;;;;;5115442;28;20023;-71
2021/06/28 04:48:59;;;;;;;15.55;10.48;;;640.30;1612.80;;;;;;5116005;28;20051;-70
2021/06/28 04:51:25;;;;;;;18.42;10.50;;;640.30;1612.80;;;;;;5115369;28;20031;-70
2021/06/28 04:53:51;;;;;;;15.13;9.05;;;640.30;1612.80;;;;;;5115321;28;20023;-70
2021/06/28 04:56:17;;;;;;;16.90;9.65;;;640.40;1612.80;;;;;;5114841;28;20375;-70
2021/06/28 04:58:42;;;;;;;17.65;8.75;;;640.50;1587.20;;;;;;5115226;28;20023;-70
2021/06/28 05:01:08;;;;;;;20.27;9.82;;;640.50;1612.80;;;;;;5097115;28;20043;-70
2021/06/28 05:03:34;;;;;;;15.55;10.77;;;640.50;1587.20;;;;;;5115040;28;20551;-72
2021/06/28 05:06:00;;;;;;;18.80;8.98;;;640.60;1587.20;;;;;;5115347;28;20102;-70
2021/06/28 05:08:26;;;;;;;9.80;7.38;;;640.60;1587.20;;;;;;5114961;28;20031;-70
2021/06/28 05:10:52;;;;;;;11.07;7.72;;;640.70;1587.20;;;;;;5114968;28;20027;-70
2021/06/28 05:13:18;;;;;;;7.95;6.38;;;640.70;1561.60;;;;;;5114927;28;20034;-70
2021/06/28 05:15:44;;;;;;;9.73;5.65;;;640.70;1561.60;;;;;;5114833;28;20027;-70
2021/06/28 05:18:10;;;;;;;10.52;6.03;;;640.80;1561.60;;;;;;5114756;28;20088;-70
2021/06/28 05:20:36;;;;;;;12.68;6.15;;;640.80;1561.60;;;;;;5114815;28;20020;-71
2021/06/28 05:23:02;;;;;;;8.75;5.78;;;640.80;1536.00;;;;;;5114716;28;20024;-70
2021/06/28 05:25:28;;;;;;;7.30;5.40;;;640.80;1536.00;;;;;;5096424;28;20032;-71
2021/06/28 05:27:54;;;;;;;12.15;5.30;;;640.90;1536.00;;;;;;5114685;28;20109;-70
2021/06/28 05:30:20;;;;;;;6.70;5.18;;;665.60;1561.60;;;;;;5114565;28;20106;-70
2021/06/28 05:32:46;;;;;;;7.78;4.75;;;665.60;1561.60;;;;;;5114766;28;20524;-70
2021/06/28 05:35:12;;;;;;;10.23;5.53;;;665.60;1561.60;;;;;;5096287;28;20122;-71
2021/06/28 05:37:39;;;;;;;9.85;6.22;;;665.60;1561.60;;;;;;5114381;28;20034;-70
2021/06/28 05:40:07;;;;;;;13.52;5.93;;;665.70;1561.60;;;;;;5096133;28;20498;-70
2021/06/28 05:42:33;;;;;;;7.78;5.07;;;665.70;1561.60;;;;;;5114432;28;20030;-70
2021/06/28 05:44:59;;;;;;;7.80;5.35;;;665.80;1536.00;;;;;;5114204;28;20019;-71
2021/06/28 05:47:25;;;;;;;10.40;5.47;;;665.80;1536.00;;;;;;5114291;28;20085;-71
2021/06/28 05:49:51;;;;;;;6.30;5.30;;;665.80;1536.00;;;;;;5095910;28;20031;-71
2021/06/28 05:52:21;;;;;;;7.05;4.82;;;665.90;1510.40;;;;;;5114158;28;20028;-71
2021/06/28 05:54:49;;;;;;;8.65;5.20;;;666.00;1510.40;;;;;;5114528;28;20012;-71
2021/06/28 05:57:19;;;;;;;11.63;5.70;;;666.00;1510.40;;;;;;5114070;28;20035;-71
2021/06/28 05:59:46;;;;;;;8.32;6.60;;;666.00;1536.00;;;;;;5114180;28;20055;-71
2021/06/28 06:02:12;;;;;;;11.00;9.73;;;666.10;1510.40;;;;;;5114375;28;20383;-71
2021/06/28 06:04:38;;;;;;;12.00;8.70;;;666.10;1484.80;;;;;;5114111;28;20055;-71
2021/06/28 06:07:04;;;;;;;10.95;6.82;;;666.20;1510.40;;;;;;5113124;28;20058;-71
2021/06/28 06:09:30;;;;;;;10.43;5.80;;;666.30;1484.80;;;;;;5113979;28;20027;-71
2021/06/28 06:11:55;;;;;;;6.88;5.40;;;666.40;1484.80;;;;;;5113945;28;20111;-71
2021/06/28 06:14:21;;;;;;;7.60;6.07;;;666.40;1510.40;;;;;;5113922;28;20027;-71
2021/06/28 06:16:48;;;;;;;9.18;5.43;;;666.50;1510.40;;;;;;5113875;28;20035;-71
2021/06/28 06:19:14;;;;;;;9.00;5.18;;;666.50;1510.40;;;;;;5114151;28;20038;-71
2021/06/28 06:21:40;;;;;;;6.25;5.63;;;691.20;1536.00;;;;;;5113935;28;20481;-71
2021/06/28 06:24:09;;;;;;;7.80;5.63;;;691.30;1510.40;;;;;;5113852;28;20102;-71
2021/06/28 06:26:35;;;;;;;8.13;5.78;;;691.30;1510.40;;;;;;5113715;28;20460;-71
2021/06/28 06:29:01;;;;;;;7.25;5.70;;;691.50;1536.00;;;;;;5095582;28;20035;-71
2021/06/28 06:31:27;;;;;;;8.52;6.20;;;691.60;1536.00;;;;;;5113794;28;20026;-71
2021/06/28 06:33:53;;;;;;;9.25;5.72;;;691.70;1510.40;;;;;;5113605;28;20438;-72
2021/06/28 06:36:19;;;;;;;8.15;5.60;;;691.80;1510.40;;;;;;5113648;28;20035;-71
2021/06/28 06:38:45;;;;;;;11.43;5.13;;;691.90;1484.80;;;;;;5095460;28;20118;-71
2021/06/28 06:41:11;;;;;;;6.70;4.65;;;692.00;1484.80;;;;;;5113683;28;20084;-71
2021/06/28 06:43:37;;;;;;;6.53;4.78;;;692.10;1484.80;;;;;;5113717;28;20429;-71
2021/06/28 06:46:03;;;;;;;7.05;4.68;;;716.80;1484.80;;;;;;5113598;28;20102;-71
2021/06/28 06:48:29;;;;;;;7.90;4.65;;;716.90;1484.80;;;;;;5095292;28;20115;-71
2021/06/28 06:50:55;;;;;;;7.78;4.60;;;717.00;1459.20;;;;;;5112732;28;20022;-72
2021/06/28 06:53:21;;;;;;;5.53;4.53;;;717.10;1459.20;;;;;;5113093;28;20020;-72
2021/06/28 06:55:47;;;;;;;8.02;4.70;;;717.20;1459.20;;;;;;5094905;28;20012;-73
2021/06/28 06:58:13;;;;;;;7.20;3.83;;;717.30;1459.20;;;;;;5113061;28;20545;-71
2021/06/28 07:00:41;;;;;;;7.45;4.10;;;717.40;1459.20;;;;;;5112891;28;20043;-72
2021/06/28 07:03:07;;;;;;;5.65;4.40;;;717.50;1433.60;;;;;;5112895;28;20353;-72
2021/06/28 07:05:34;;;;;;;7.90;4.15;;;717.50;1433.60;;;;;;5112976;28;20016;-72
2021/06/28 07:08:00;;;;;;;10.90;4.30;;;717.60;1433.60;;;;;;5112691;28;20098;-73
2021/06/28 07:10:26;;;;;;;11.75;4.03;;;717.70;1433.60;;;;;;5112700;28;20149;-72
2021/06/28 07:12:53;;;;;;;5.68;4.10;;;742.40;1459.20;;;;;;5112785;28;20020;-73
2021/06/28 07:15:20;;;;;;;12.63;4.00;;;742.40;1433.60;;;;;;5112751;28;20499;-73
2021/06/28 07:17:46;;;;;;;8.77;4.05;;;742.50;1433.60;;;;;;5112991;28;20077;-72
2021/06/28 07:20:16;;;;;;;6.97;4.05;;;742.50;1459.20;;;;;;5116730;28;20019;-73
2021/06/28 07:22:42;;;;;;;13.05;4.40;;;742.50;1433.60;;;;;;5098722;28;20023;-71
2021/06/28 07:25:10;;;;;;;10.70;4.43;;;742.60;1459.20;;;;;;5116908;28;20387;-71
2021/06/28 07:27:36;;;;;;;11.95;4.18;;;742.60;1433.60;;;;;;5116840;28;20028;-72
2021/06/28 07:30:08;;;;;;;10.23;3.90;;;742.70;1433.60;;;;;;5116977;28;20019;-73
2021/06/28 07:32:34;;;;;;;7.13;3.55;;;742.70;1433.60;;;;;;5116699;28;20035;-72
2021/06/28 07:35:00;;;;;;;6.63;3.90;;;742.70;1408.00;;;;;;5116919;28;20031;-73
2021/06/28 07:37:26;;;;;;;7.05;3.63;;;742.80;1408.00;;;;;;5116613;28;20361;-72
2021/06/28 07:39:52;;;;;;;5.90;4.10;;;742.80;1408.00;;;;;;5116556;28;20100;-73
2021/06/28 07:42:18;;;;;;;6.75;3.80;;;742.80;1408.00;;;;;;5098009;28;20028;-73
2021/06/28 07:44:44;;;;;;;6.78;3.35;;;742.90;1408.00;;;;;;5115143;28;20036;-73
2021/06/28 07:47:10;;;;;;;4.18;3.35;;;742.90;1382.40;;;;;;5115177;28;20057;-72
2021/06/28 07:49:36;;;;;;;6.28;3.78;;;742.90;1382.40;;;;;;5115060;28;20024;-73
2021/06/28 07:52:02;;;;;;;4.45;3.40;;;742.90;1356.80;;;;;;5114980;28;20024;-73
2021/06/28 07:54:30;;;;;;;6.03;3.85;;;742.90;1356.80;;;;;;5096685;28;20478;-73
2021/06/28 07:56:55;;;;;;;6.60;4.20;;;743.00;1356.80;;;;;;5114698;28;20476;-73
2021/06/28 07:59:21;;;;;;;4.45;3.40;;;743.00;1356.80;;;;;;5116104;28;20102;-73
2021/06/28 08:01:47;;;;;;;5.00;3.38;;;743.00;1331.20;;;;;;5116209;28;20012;-73
2021/06/28 08:04:13;;;;;;;5.95;3.45;;;743.00;1331.20;;;;;;5116075;28;20031;-73
2021/06/28 08:06:39;;;;;;;3.90;3.30;;;743.00;1331.20;;;;;;5116151;28;20579;-73
2021/06/28 08:09:05;;;;;;;4.05;3.65;;;743.00;1280.00;;;;;;5116001;28;20102;-73
2021/06/28 08:11:31;;;;;;;5.50;3.72;;;743.00;1305.60;;;;;;5115936;28;20032;-73
2021/06/28 08:13:57;;;;;;;5.43;3.10;;;743.00;1305.60;;;;;;5116044;28;20035;-73
2021/06/28 08:16:24;;;;;;;4.15;3.03;;;743.00;1305.60;;;;;;5115834;28;20059;-73
2021/06/28 08:18:52;;;;;;;7.72;3.38;;;743.10;1305.60;;;;;;5115972;28;20111;-73
2021/06/28 08:21:19;;;;;;;7.63;3.40;;;743.10;1305.60;;;;;;5115793;28;20464;-73
2021/06/28 08:23:46;;;;;;;4.90;3.10;;;743.10;1305.60;;;;;;5097545;28;20069;-73
2021/06/28 08:26:12;;;;;;;3.40;3.10;;;743.10;1305.60;;;;;;5115752;28;20019;-73
2021/06/28 08:28:39;;;;;;;3.58;2.92;;;743.10;1305.60;;;;;;5097418;28;20039;-73
2021/06/28 08:31:06;;;;;;;5.00;3.58;;;743.10;1305.60;;;;;;5114777;28;20031;-72
2021/06/28 08:33:32;;;;;;;7.97;2.78;;;743.10;1305.60;;;;;;5115414;28;20044;-73
2021/06/28 08:35:59;;;;;;;3.83;2.67;;;743.10;1305.60;;;;;;5115049;28;20024;-73
2021/06/28 08:38:25;;;;;;;3.80;3.10;;;743.10;1305.60;;;;;;5115351;28;20039;-76
2021/06/28 08:40:52;;;;;;;4.57;2.97;;;743.10;1280.00;;;;;;5097292;28;20066;-73
2021/06/28 08:43:18;;;;;;;4.65;2.75;;;743.10;1280.00;;;;;;5115579;28;20031;-73
2021/06/28 08:45:44;;;;;;;7.72;3.10;;;743.10;1280.00;;;;;;5115327;28;20020;-74
2021/06/28 08:48:11;;;;;;;6.22;2.80;;;743.10;1280.00;;;;;;5107162;28;20023;-74
2021/06/28 08:50:40;;;;;;;3.67;2.95;;;743.10;1254.40;;;;;;5114526;28;20019;-73
2021/06/28 08:53:08;;;;;;;4.88;3.30;;;743.10;1228.80;;;;;;5113795;28;20024;-73
2021/06/28 08:55:35;;;;;;;7.97;3.35;;;743.10;1254.40;;;;;;5114820;28;20480;-73
2021/06/28 08:58:04;;;;;;;5.10;3.30;;;743.20;1254.40;;;;;;5114833;28;20395;-73
2021/06/28 09:00:30;;;;;;;9.07;2.90;;;743.20;1203.20;;;;;;5114497;28;20086;-73
2021/06/28 09:03:00;;;;;;;6.03;3.05;;;743.20;1254.40;;;;;;5114770;28;20077;-74
2021/06/28 09:05:27;;;;;;;10.35;3.08;;;743.30;1254.40;;;;;;5114358;28;20024;-73
2021/06/28 09:08:12;;;;;;;4.07;2.90;;;743.30;1228.80;;;;;;5114683;28;20464;-73
2021/06/28 09:10:43;;;;;;;8.57;2.90;;;743.30;1254.40;;;;;;5114222;28;20380;-73
2021/06/28 09:13:11;;;;;;;5.85;2.83;;;743.30;1254.40;;;;;;5114547;28;20049;-72
2021/06/28 09:15:37;;;;;;;5.47;3.03;;;743.30;1254.40;;;;;;5114099;28;20020;-72
2021/06/28 09:18:21;;;;;;;3.92;2.97;;;743.30;1254.40;;;;;;5114393;28;20039;-72
2021/06/28 09:20:48;;;;;;;3.17;2.40;;;743.30;1203.20;;;;;;5114302;28;20448;-74
2021/06/28 09:23:25;;;;;;;6.40;2.90;;;768.00;1177.60;;;;;;5114132;28;20491;-73
2021/06/28 09:25:57;;;;;;;4.72;2.90;;;768.00;1203.20;;;;;;5114294;28;20027;-73
2021/06/28 09:28:37;;;;;;;3.88;2.92;;;768.00;1177.60;;;;;;5114189;28;20061;-73
2021/06/28 09:31:03;;;;;;;3.85;2.90;;;768.00;1177.60;;;;;;5114092;28;20032;-73
2021/06/28 09:33:30;;;;;;;5.20;2.40;;;768.00;1228.80;;;;;;5113377;28;20035;-72
2021/06/28 09:35:56;;;;;;;3.67;2.70;;;768.00;1228.80;;;;;;5114058;28;20019;-73
2021/06/28 09:38:36;;;;;;;3.33;2.80;;;768.00;1228.80;;;;;;5113611;28;20063;-74
2021/06/28 09:41:22;;;;;;;5.25;2.70;;;768.00;1228.80;;;;;;5113949;28;20130;-72
2021/06/28 09:43:49;;;;;;;5.07;2.92;;;768.00;1228.80;;;;;;5113456;28;20528;-75
2021/06/28 09:46:17;;;;;;;3.92;2.95;;;768.00;1203.20;;;;;;5114207;28;20023;-73
2021/06/28 09:48:49;;;;;;;3.58;2.38;;;768.00;1152.00;;;;;;5095302;28;20023;-73
2021/06/28 09:51:19;;;;;;;4.70;2.40;;;768.00;1228.80;;;;;;5113984;28;20030;-73
2021/06/28 09:53:46;;;;;;;3.78;2.38;;;768.00;1228.80;;;;;;5113351;28;20091;-73
2021/06/28 09:56:35;;;;;;;3.80;2.50;;;768.00;1228.80;;;;;;5113721;28;20077;-73
2021/06/28 09:59:23;;;;;;;3.30;2.35;;;768.00;1228.80;;;;;;5113489;28;20051;-73
2021/06/28 10:01:51;;;;;;;7.72;2.60;;;768.00;1203.20;;;;;;5095083;28;20114;-74
2021/06/28 10:07:30;;;;;;;4.57;2.42;;;768.00;1177.60;;;;;;5113818;28;20028;-72
2021/06/28 10:10:25;;;;;;;3.05;2.50;;;768.00;1049.60;;;;;;5112708;28;20030;-73
2021/06/28 10:12:59;;;;;;;6.85;2.50;;;768.00;1203.20;;;;;;5111971;28;20047;-74
2021/06/28 10:15:29;;;;;;;4.22;2.20;;;768.10;1177.60;;;;;;5094775;28;20035;-73
2021/06/28 10:17:55;;;;;;;4.65;2.28;;;768.00;1203.20;;;;;;5112887;28;20059;-72
2021/06/28 10:20:27;;;;;;;2.50;2.20;;;768.00;1177.60;;;;;;5113163;28;20058;-72
2021/06/28 10:22:54;;;;;;;2.50;1.90;;;768.00;1177.60;;;;;;5112468;28;20027;-74
2021/06/28 10:25:22;;;;;;;3.60;2.20;;;768.10;1177.60;;;;;;5095464;28;20063;-73
2021/06/28 10:27:48;;;;;;;4.00;2.30;;;768.10;1177.60;;;;;;5094760;28;20509;-73
2021/06/28 10:30:17;;;;;;;3.70;2.30;;;768.10;1152.00;;;;;;5113697;28;20031;-77
2021/06/28 10:32:45;;;;;;;3.55;2.33;;;768.10;1177.60;;;;;;5112718;28;20484;-73
2021/06/28 10:35:20;;;;;;;10.38;2.47;;;768.10;1152.00;;;;;;5113575;28;20027;-73
2021/06/28 10:37:50;;;;;;;16.88;2.95;;;768.10;1203.20;;;;;;5113085;28;20607;-73
2021/06/28 10:40:22;;;;;;;14.80;3.10;;;768.10;1203.20;;;;;;5113345;28;20020;-75
2021/06/28 10:42:57;;;;;;;9.30;2.40;;;768.10;1126.40;;;;;;5113096;28;20112;-81
2021/06/28 10:45:38;;;;;;;6.20;2.28;;;768.10;1126.40;;;;;;5113180;28;20022;-72
2021/06/28 10:48:14;;;;;;;4.57;2.50;;;768.10;1126.40;;;;;;5113164;28;20053;-76
2021/06/28 10:50:52;;;;;;;9.02;2.50;;;768.20;1126.40;;;;;;5112992;28;20019;-74
2021/06/28 10:53:39;;;;;;;14.38;3.25;;;768.20;1152.00;;;;;;5095973;28;20024;-74
2021/06/28 10:56:26;;;;;;;5.70;2.28;;;768.30;1177.60;;;;;;5098545;28;20031;-74
2021/06/28 10:58:59;;;;;;;3.88;2.70;;;768.40;1152.00;;;;;;5117425;28;20055;-73
2021/06/28 11:01:38;;;;;;;7.65;2.80;;;768.40;1152.00;;;;;;5116770;28;20024;-75
2021/06/28 11:04:16;;;;;;;10.52;3.08;;;768.40;1100.80;;;;;;5116973;28;20357;-73
2021/06/28 11:07:00;;;;;;;5.55;2.50;;;768.50;1126.40;;;;;;5115877;28;20016;-72
2021/06/28 11:09:49;;;;;;;32.63;4.13;;;768.50;1100.80;;;;;;5116832;28;20430;-72
2021/06/28 11:12:17;;;;;;;17.60;3.30;;;768.50;1126.40;;;;;;5116558;28;20020;-74
2021/06/28 11:14:47;;;;;;;18.08;3.40;;;768.60;1126.40;;;;;;5116877;28;20064;-72
2021/06/28 11:17:22;;;;;;;35.63;3.53;;;768.60;1152.00;;;;;;5116470;28;20077;-75
2021/06/28 11:19:59;;;;;;;40.90;4.57;;;768.50;1177.60;;;;;;5116948;28;20031;-73
2021/06/28 11:22:27;;;;;;;9.63;2.75;;;768.50;1075.20;;;;;;5116416;28;20495;-73
2021/06/28 11:25:09;;;;;;;14.63;2.70;;;768.50;1177.60;;;;;;5116545;28;20042;-73
2021/06/28 11:27:36;;;;;;;6.60;2.47;;;768.50;1152.00;;;;;;5097991;28;20030;-73
2021/06/28 11:30:30;;;;;;;5.45;2.38;;;768.50;1152.00;;;;;;5096225;28;20031;-73
2021/06/28 11:33:07;;;;;;;7.88;2.78;;;768.50;1126.40;;;;;;5094547;28;20051;-73
2021/06/28 11:35:46;;;;;;;9.75;2.72;;;768.40;1024.00;;;;;;5116282;28;20043;-72
2021/06/28 11:38:26;;;;;;;7.22;2.63;;;768.50;1049.60;;;;;;5114130;28;20479;-72
2021/06/28 11:40:55;;;;;;;11.77;2.53;;;768.50;1152.00;;;;;;5114082;28;20035;-72
2021/06/28 11:43:47;;;;;;;9.52;2.80;;;768.50;1152.00;;;;;;5114708;28;20030;-72
2021/06/28 11:46:14;;;;;;;43.72;18.25;;;768.40;1100.80;;;;;;5114192;28;20028;-73
2021/06/28 11:48:50;;;;;;;32.90;15.73;;;768.50;1177.60;;;;;;5114850;28;20115;-72
2021/06/28 11:51:22;;;;;;;96.50;47.53;;;768.50;1177.60;;;;;;5114695;28;20019;-72
2021/06/28 11:53:56;;;;;;;77.75;36.83;;;768.50;1152.00;;;;;;5114666;28;20039;-73
2021/06/28 11:56:33;;;;;;;38.85;19.23;;;768.50;1126.40;;;;;;5112130;28;20028;-74
2021/06/28 11:59:19;;;;;;;61.47;24.85;;;768.50;1126.40;;;;;;5112081;28;20027;-74
2021/06/28 12:01:52;;;;;;;56.65;24.48;;;768.60;1126.40;;;;;;5112287;28;20097;-74
2021/06/28 12:04:21;;;;;;;30.00;12.48;;;768.60;1126.40;;;;;;5111880;28;20020;-73
2021/06/28 12:06:48;;;;;;;24.42;10.65;;;768.60;1100.80;;;;;;5114015;28;20027;-73
2021/06/28 12:09:32;;;;;;;26.95;11.95;;;768.70;1126.40;;;;;;5114553;28;20012;-73
2021/06/28 12:12:01;;;;;;;25.20;8.43;;;768.60;1126.40;;;;;;5111247;28;20023;-72
2021/06/28 12:14:40;;;;;;;23.80;8.80;;;768.70;1126.40;;;;;;5114427;28;20012;-73
2021/06/28 12:17:18;;;;;;;19.42;8.27;;;768.70;1126.40;;;;;;5112119;28;20023;-73
2021/06/28 12:19:45;;;;;;;19.13;8.50;;;768.70;1100.80;;;;;;5102440;28;20034;-74
2021/06/28 12:22:25;;;;;;;26.52;6.93;;;768.70;1049.60;;;;;;5104230;28;20028;-73